createdAt,value
2022-07-31T00:01:25.410Z,99511.60
2022-07-31T00:03:58.068Z,99507.69
2022-07-31T00:06:30.631Z,99508.11
2022-07-31T00:09:02.932Z,99508.10
2022-07-31T00:11:35.191Z,99507.17
2022-07-31T00:14:07.548Z,99508.77
2022-07-31T00:16:39.684Z,99506.39
2022-07-31T00:19:11.960Z,99506.67
2022-07-31T00:21:44.023Z,99508.36
2022-07-31T00:24:16.116Z,99504.67
2022-07-31T00:26:48.542Z,99498.23
2022-07-31T00:29:25.649Z,99496.86
2022-07-31T00:31:58.759Z,99498.28
2022-07-31T00:34:31.562Z,99495.14
2022-07-31T00:37:04.314Z,99490.09
2022-07-31T00:39:36.871Z,99484.08
2022-07-31T00:42:19.673Z,99480.42
2022-07-31T00:44:52.447Z,99477.36
2022-07-31T00:47:25.648Z,99476.82
2022-07-31T00:49:58.628Z,99485.53
2022-07-31T00:52:31.163Z,99478.41
2022-07-31T00:55:03.504Z,99476.94
2022-07-31T00:57:36.144Z,99477.98
2022-07-31T01:00:10.067Z,99478.16
2022-07-31T01:02:46.584Z,99477.39
2022-07-31T01:05:19.694Z,99475.48
2022-07-31T01:07:52.386Z,99476.94
2022-07-31T01:10:37.304Z,99473.98
2022-07-31T01:13:15.743Z,99473.65
2022-07-31T01:15:49.369Z,99470.70
2022-07-31T01:18:23.595Z,99468.35
2022-07-31T01:20:59.461Z,99465.46
2022-07-31T01:23:55.013Z,99461.52
2022-07-31T01:26:48.914Z,99459.00
2022-07-31T01:29:27.157Z,99453.61
2022-07-31T01:32:05.180Z,99454.79
2022-07-31T01:34:43.894Z,99450.58
2022-07-31T01:37:22.025Z,99446.08
2022-07-31T01:39:56.396Z,99441.99
2022-07-31T01:42:30.632Z,99433.04
2022-07-31T01:45:07.362Z,99425.51
2022-07-31T01:47:41.084Z,99419.34
2022-07-31T01:50:42.497Z,99413.96
2022-07-31T01:53:08.795Z,99412.89
2022-07-31T01:56:02.302Z,99416.52
2022-07-31T01:58:40.108Z,99416.38
2022-07-31T02:01:27.233Z,99413.70
2022-07-31T02:04:01.496Z,99410.09
2022-07-31T02:06:36.455Z,99415.22
2022-07-31T02:09:08.878Z,99412.29
2022-07-31T02:11:53.725Z,99410.64
2022-07-31T02:14:29.004Z,99409.40
2022-07-31T02:17:02.306Z,99405.83
2022-07-31T02:20:03.348Z,99412.27
2022-07-31T02:22:36.155Z,99417.11
2022-07-31T02:25:11.232Z,99413.56
2022-07-31T02:27:54.126Z,99417.55
2022-07-31T02:30:39.261Z,99421.30
2022-07-31T02:33:19.217Z,99410.35
2022-07-31T02:35:51.575Z,99404.45
2022-07-31T02:38:26.867Z,99400.54
2022-07-31T02:41:05.076Z,99401.04
2022-07-31T02:43:38.437Z,99402.77
2022-07-31T02:46:19.676Z,99400.37
2022-07-31T02:48:53.001Z,99396.88
2022-07-31T02:51:26.658Z,99397.66
2022-07-31T02:53:59.074Z,99397.27
2022-07-31T02:56:34.290Z,99397.16
2022-07-31T02:59:07.236Z,99396.97
2022-07-31T03:01:54.594Z,99395.60
2022-07-31T03:04:27.411Z,99393.88
2022-07-31T03:07:00.667Z,99386.40
2022-07-31T03:09:33.420Z,99390.62
2022-07-31T03:12:26.455Z,99385.74
2022-07-31T03:15:01.040Z,99381.80
2022-07-31T03:17:40.657Z,99378.80
2022-07-31T03:20:16.808Z,99377.44
2022-07-31T03:22:51.902Z,99376.02
2022-07-31T03:25:25.375Z,99375.69
2022-07-31T03:27:57.544Z,99375.70
2022-07-31T03:30:30.421Z,99376.84
2022-07-31T03:33:03.823Z,99375.27
2022-07-31T03:35:39.199Z,99371.03
2022-07-31T03:38:38.905Z,99371.70
2022-07-31T03:41:10.063Z,99369.92
2022-07-31T03:43:47.998Z,99363.75
2022-07-31T03:46:23.934Z,99362.73
2022-07-31T03:48:56.364Z,99363.36
2022-07-31T03:51:30.688Z,99357.09
2022-07-31T03:54:04.273Z,99354.73
2022-07-31T03:57:00.867Z,99352.73
2022-07-31T03:59:40.765Z,99354.00
2022-07-31T04:02:21.063Z,99352.56
2022-07-31T04:04:57.512Z,99347.42
2022-07-31T04:07:30.839Z,99345.44
2022-07-31T04:10:03.994Z,99341.84
2022-07-31T04:12:36.834Z,99338.86
2022-07-31T04:15:10.366Z,99335.54
2022-07-31T04:17:43.040Z,99337.52
2022-07-31T04:20:16.131Z,99322.25
2022-07-31T04:22:49.326Z,99322.48
2022-07-31T04:25:37.230Z,99321.84
2022-07-31T04:28:30.058Z,99318.61
2022-07-31T04:31:02.382Z,99322.91
2022-07-31T04:33:47.928Z,99330.31
2022-07-31T04:36:30.395Z,99320.42
2022-07-31T04:39:05.382Z,99322.44
2022-07-31T04:41:37.576Z,99323.73
2022-07-31T04:44:10.741Z,99321.91
2022-07-31T04:47:03.510Z,99317.68
2022-07-31T04:49:39.097Z,99319.19
2022-07-31T04:52:12.742Z,99324.19
2022-07-31T04:54:46.730Z,99325.23
2022-07-31T04:57:22.095Z,99322.26
2022-07-31T04:59:58.157Z,99323.39
2022-07-31T05:02:33.609Z,99327.00
2022-07-31T05:05:06.664Z,99323.73
2022-07-31T05:07:43.224Z,99323.35
2022-07-31T05:10:39.772Z,99319.28
2022-07-31T05:13:11.869Z,99325.30
2022-07-31T05:15:47.439Z,99324.14
2022-07-31T05:18:19.423Z,99322.21
2022-07-31T05:21:10.409Z,99324.78
2022-07-31T05:23:54.286Z,99320.31
2022-07-31T05:26:42.609Z,99321.19
2022-07-31T05:29:14.871Z,99320.34
2022-07-31T05:31:59.574Z,99321.23
2022-07-31T05:34:33.313Z,99322.00
2022-07-31T05:37:05.808Z,99325.41
2022-07-31T05:39:40.899Z,99322.23
2022-07-31T05:42:31.799Z,99325.38
2022-07-31T05:45:33.466Z,99323.18
2022-07-31T05:48:06.690Z,99323.52
2022-07-31T05:50:39.123Z,99324.48
2022-07-31T05:53:13.502Z,99324.67
2022-07-31T05:56:05.855Z,99322.34
2022-07-31T05:58:48.405Z,99319.98
2022-07-31T06:01:21.457Z,99319.06
2022-07-31T06:03:53.951Z,99318.75
2022-07-31T06:06:29.496Z,99319.05
2022-07-31T06:09:04.705Z,99322.79
2022-07-31T06:11:40.642Z,99319.58
2022-07-31T06:14:13.392Z,99319.73
2022-07-31T06:17:24.280Z,99318.20
2022-07-31T06:20:17.410Z,99313.31
2022-07-31T06:22:49.855Z,99314.63
2022-07-31T06:25:22.436Z,99311.93
2022-07-31T06:27:59.413Z,99309.73
2022-07-31T06:30:33.791Z,99311.73
2022-07-31T06:33:08.493Z,99312.46
2022-07-31T06:35:41.550Z,99309.70
2022-07-31T06:38:36.977Z,99312.79
2022-07-31T06:41:47.606Z,99313.63
2022-07-31T06:44:46.259Z,99310.98
2022-07-31T06:47:39.075Z,99302.55
2022-07-31T06:50:17.281Z,99307.67
2022-07-31T06:52:59.029Z,99306.95
2022-07-31T06:55:31.329Z,99307.45
2022-07-31T06:58:06.662Z,99306.95
2022-07-31T07:00:38.873Z,99304.16
2022-07-31T07:03:11.495Z,99307.60
2022-07-31T07:05:45.455Z,99304.55
2022-07-31T07:08:19.862Z,99306.87
2022-07-31T07:10:52.983Z,99304.63
2022-07-31T07:13:44.913Z,99298.55
2022-07-31T07:16:20.186Z,99299.17
2022-07-31T07:18:53.336Z,99300.64
2022-07-31T07:21:28.450Z,99298.15
2022-07-31T07:24:01.245Z,99301.55
2022-07-31T07:26:43.302Z,99299.01
2022-07-31T07:29:15.657Z,99299.63
2022-07-31T07:31:47.907Z,99302.00
2022-07-31T07:34:20.983Z,99300.54
2022-07-31T07:36:53.072Z,99300.29
2022-07-31T07:39:28.390Z,99298.48
2022-07-31T07:42:01.713Z,99297.27
2022-07-31T07:44:34.975Z,99301.04
2022-07-31T07:47:07.343Z,99300.38
2022-07-31T07:49:40.067Z,99298.34
2022-07-31T07:52:29.898Z,99299.52
2022-07-31T07:55:06.655Z,99299.73
2022-07-31T07:58:17.001Z,99301.63
2022-07-31T08:01:07.792Z,99297.83
2022-07-31T08:03:50.247Z,99300.49
2022-07-31T08:06:25.086Z,99296.41
2022-07-31T08:08:57.694Z,99297.52
2022-07-31T08:11:49.246Z,99296.95
2022-07-31T08:14:41.664Z,99300.17
2022-07-31T08:17:34.587Z,99297.34
2022-07-31T08:20:08.513Z,99297.42
2022-07-31T08:22:41.152Z,99297.33
2022-07-31T08:25:14.377Z,99300.58
2022-07-31T08:27:49.666Z,99298.42
2022-07-31T08:30:22.116Z,99300.69
2022-07-31T08:33:03.762Z,99301.94
2022-07-31T08:35:40.233Z,99301.89
2022-07-31T08:38:17.606Z,99301.95
2022-07-31T08:41:17.252Z,99300.95
2022-07-31T08:44:11.228Z,99304.91
2022-07-31T08:46:58.436Z,99303.34
2022-07-31T08:49:34.976Z,99299.75
2022-07-31T08:52:10.293Z,99300.90
2022-07-31T08:55:01.284Z,99301.14
2022-07-31T08:57:40.524Z,99301.90
2022-07-31T09:00:17.780Z,99300.04
2022-07-31T09:02:56.127Z,99305.39
2022-07-31T09:05:42.736Z,99304.92
2022-07-31T09:08:16.419Z,99304.95
2022-07-31T09:11:02.658Z,99302.50
2022-07-31T09:13:37.742Z,99303.34
2022-07-31T09:16:24.019Z,99308.13
2022-07-31T09:19:51.674Z,99308.42
2022-07-31T09:21:59.066Z,99312.80
2022-07-31T09:24:38.146Z,99316.23
2022-07-31T09:27:14.383Z,99317.95
2022-07-31T09:29:49.282Z,99321.06
2022-07-31T09:32:48.208Z,99323.98
2022-07-31T09:35:26.758Z,99325.73
2022-07-31T09:37:59.439Z,99329.29
2022-07-31T09:40:57.282Z,99327.18
2022-07-31T09:43:31.787Z,99326.23
2022-07-31T09:46:05.244Z,99329.77
2022-07-31T09:48:38.744Z,99323.67
2022-07-31T09:51:16.303Z,99326.73
2022-07-31T09:53:53.663Z,99327.02
2022-07-31T09:56:50.265Z,99327.52
2022-07-31T09:59:22.867Z,99328.04
2022-07-31T10:01:56.389Z,99328.89
2022-07-31T10:04:29.764Z,99330.53
2022-07-31T10:07:02.680Z,99329.43
2022-07-31T10:09:38.595Z,99332.48
2022-07-31T10:12:20.989Z,99329.90
2022-07-31T10:14:55.236Z,99328.05
2022-07-31T10:17:35.872Z,99323.02
2022-07-31T10:20:10.978Z,99327.43
2022-07-31T10:23:17.796Z,99327.76
2022-07-31T10:25:54.063Z,99328.67
2022-07-31T10:28:27.214Z,99333.98
2022-07-31T10:31:00.327Z,99338.48
2022-07-31T10:33:48.511Z,99334.16
2022-07-31T10:36:43.087Z,99337.63
2022-07-31T10:39:52.396Z,99340.39
2022-07-31T10:42:41.916Z,99344.01
2022-07-31T10:45:16.646Z,99348.30
2022-07-31T10:48:13.592Z,99348.98
2022-07-31T10:51:09.665Z,99351.38
2022-07-31T10:54:03.554Z,99352.15
2022-07-31T10:56:59.062Z,99354.48
2022-07-31T10:59:50.638Z,99354.25
2022-07-31T11:02:41.854Z,99352.02
2022-07-31T11:06:01.636Z,99353.09
2022-07-31T11:08:49.029Z,99352.55
2022-07-31T11:11:40.599Z,99352.63
2022-07-31T11:14:41.930Z,99354.20
2022-07-31T11:18:16.866Z,99352.56
2022-07-31T11:20:47.009Z,99351.27
2022-07-31T11:23:20.455Z,99353.90
2022-07-31T11:25:52.556Z,99355.68
2022-07-31T11:28:25.047Z,99362.06
2022-07-31T11:30:58.324Z,99364.27
2022-07-31T11:33:41.902Z,99366.40
2022-07-31T11:36:17.369Z,99369.92
2022-07-31T11:38:52.256Z,99370.64
2022-07-31T11:41:28.628Z,99369.64
2022-07-31T11:44:03.977Z,99373.22
2022-07-31T11:46:38.152Z,99373.83
2022-07-31T11:49:21.386Z,99372.05
2022-07-31T11:52:31.346Z,99374.13
2022-07-31T11:55:13.447Z,99372.63
2022-07-31T11:57:51.506Z,99373.34
2022-07-31T12:00:29.646Z,99370.78
2022-07-31T12:03:03.472Z,99375.05
2022-07-31T12:05:46.783Z,99376.77
2022-07-31T12:08:19.807Z,99378.92
2022-07-31T12:10:52.938Z,99380.40
2022-07-31T12:13:26.478Z,99385.41
2022-07-31T12:16:04.636Z,99385.01
2022-07-31T12:18:50.549Z,99389.06
2022-07-31T12:21:31.105Z,99390.54
2022-07-31T12:24:03.463Z,99389.78
2022-07-31T12:26:36.821Z,99393.75
2022-07-31T12:29:10.884Z,99393.34
2022-07-31T12:31:49.276Z,99388.08
2022-07-31T12:34:34.213Z,99389.27
2022-07-31T12:37:09.310Z,99391.10
2022-07-31T12:40:00.223Z,99395.21
2022-07-31T12:42:40.820Z,99392.62
2022-07-31T12:45:18.283Z,99393.55
2022-07-31T12:47:56.673Z,99389.09
2022-07-31T12:50:30.907Z,99389.02
2022-07-31T12:53:04.964Z,99392.27
2022-07-31T12:55:37.619Z,99393.59
2022-07-31T12:58:10.537Z,99392.71
2022-07-31T13:00:42.701Z,99386.27
2022-07-31T13:03:15.103Z,99382.98
2022-07-31T13:05:51.900Z,99384.77
2022-07-31T13:08:24.964Z,99389.48
2022-07-31T13:10:57.214Z,99394.50
2022-07-31T13:13:29.676Z,99390.40
2022-07-31T13:16:02.690Z,99398.92
2022-07-31T13:18:36.067Z,99398.13
2022-07-31T13:21:08.676Z,99399.50
2022-07-31T13:23:41.247Z,99395.90
2022-07-31T13:26:13.461Z,99396.84
2022-07-31T13:28:45.910Z,99400.97
2022-07-31T13:31:18.258Z,99401.48
2022-07-31T13:33:50.840Z,99402.36
2022-07-31T13:36:23.522Z,99405.10
2022-07-31T13:38:56.063Z,99405.67
2022-07-31T13:41:31.162Z,99409.76
2022-07-31T13:44:05.474Z,99407.79
2022-07-31T13:46:38.204Z,99407.75
2022-07-31T13:49:11.078Z,99411.28
2022-07-31T13:51:43.207Z,99415.46
2022-07-31T13:54:16.750Z,99421.73
2022-07-31T13:56:48.963Z,99424.70
2022-07-31T13:59:21.480Z,99426.25
2022-07-31T14:02:03.296Z,99423.86
2022-07-31T14:04:40.748Z,99425.80
2022-07-31T14:07:13.199Z,99426.91
2022-07-31T14:09:54.728Z,99428.07
2022-07-31T14:12:27.878Z,99431.59
2022-07-31T14:15:00.654Z,99430.88
2022-07-31T14:17:32.694Z,99430.05
2022-07-31T14:20:05.706Z,99427.18
2022-07-31T14:22:39.161Z,99429.22
2022-07-31T14:25:13.447Z,99428.96
2022-07-31T14:27:46.092Z,99434.77
2022-07-31T14:30:19.874Z,99435.09
2022-07-31T14:32:52.484Z,99438.52
2022-07-31T14:35:25.436Z,99442.33
2022-07-31T14:37:59.944Z,99441.02
2022-07-31T14:40:36.010Z,99444.87
2022-07-31T14:43:10.176Z,99448.99
2022-07-31T14:45:51.932Z,99450.38
2022-07-31T14:48:24.321Z,99452.89
2022-07-31T14:50:57.663Z,99454.28
2022-07-31T14:53:29.997Z,99457.70
2022-07-31T14:56:04.181Z,99458.95
2022-07-31T14:58:57.350Z,99460.34
2022-07-31T15:01:30.638Z,99460.02
2022-07-31T15:04:03.467Z,99461.73
2022-07-31T15:06:55.464Z,99460.55
2022-07-31T15:09:28.350Z,99460.65
2022-07-31T15:12:02.103Z,99458.48
2022-07-31T15:14:34.560Z,99457.25
2022-07-31T15:17:07.391Z,99457.59
2022-07-31T15:19:39.988Z,99462.11
2022-07-31T15:22:16.467Z,99462.75
2022-07-31T15:24:50.435Z,99463.73
2022-07-31T15:27:25.125Z,99470.05
2022-07-31T15:30:03.767Z,99472.08
2022-07-31T15:32:40.947Z,99475.80
2022-07-31T15:35:15.575Z,99480.22
2022-07-31T15:37:49.729Z,99478.42
2022-07-31T15:40:21.837Z,99483.77
2022-07-31T15:42:54.656Z,99483.19
2022-07-31T15:45:26.848Z,99486.02
2022-07-31T15:47:59.993Z,99486.42
2022-07-31T15:50:32.184Z,99484.42
2022-07-31T15:53:05.144Z,99489.76
2022-07-31T15:55:37.530Z,99494.02
2022-07-31T15:58:10.924Z,99493.13
2022-07-31T16:00:43.117Z,99498.16
2022-07-31T16:03:18.050Z,99498.95
2022-07-31T16:05:55.742Z,99500.39
2022-07-31T16:08:35.388Z,99503.82
2022-07-31T16:11:08.289Z,99504.88
2022-07-31T16:13:40.787Z,99507.43
2022-07-31T16:16:12.838Z,99513.65
2022-07-31T16:18:45.092Z,99514.64
2022-07-31T16:21:17.076Z,99515.95
2022-07-31T16:23:49.766Z,99518.65
2022-07-31T16:26:21.803Z,99520.40
2022-07-31T16:28:54.446Z,99521.66
2022-07-31T16:31:30.365Z,99526.02
2022-07-31T16:34:03.740Z,99525.95
2022-07-31T16:36:36.063Z,99528.61
2022-07-31T16:39:20.100Z,99533.95
2022-07-31T16:41:55.040Z,99535.33
2022-07-31T16:44:28.050Z,99542.26
2022-07-31T16:47:00.138Z,99540.13
2022-07-31T16:49:36.876Z,99538.98
2022-07-31T16:52:10.527Z,99540.99
2022-07-31T16:54:43.547Z,99544.40
2022-07-31T16:57:16.018Z,99546.54
2022-07-31T16:59:57.210Z,99549.80
2022-07-31T17:02:30.263Z,99554.23
2022-07-31T17:05:02.765Z,99555.36
2022-07-31T17:07:34.822Z,99559.65
2022-07-31T17:10:08.920Z,99564.45
2022-07-31T17:12:41.361Z,99565.33
2022-07-31T17:15:14.431Z,99566.43
2022-07-31T17:17:46.544Z,99567.84
2022-07-31T17:20:23.612Z,99564.20
2022-07-31T17:22:56.089Z,99565.44
2022-07-31T17:25:28.922Z,99565.44
2022-07-31T17:28:00.971Z,99564.48
2022-07-31T17:30:34.279Z,99564.70
2022-07-31T17:33:06.417Z,99565.78
2022-07-31T17:35:39.122Z,99569.05
2022-07-31T17:38:11.351Z,99573.49
2022-07-31T17:40:44.475Z,99577.88
2022-07-31T17:43:17.194Z,99584.89
2022-07-31T17:46:08.578Z,99587.75
2022-07-31T17:48:41.724Z,99587.44
2022-07-31T17:51:14.105Z,99590.59
2022-07-31T17:53:55.285Z,99594.25
2022-07-31T17:56:32.126Z,99596.32
2022-07-31T17:59:05.932Z,99600.17
2022-07-31T18:01:38.644Z,99602.52
2022-07-31T18:04:10.867Z,99607.52
2022-07-31T18:06:52.800Z,99602.12
2022-07-31T18:09:27.388Z,99607.34
2022-07-31T18:12:00.759Z,99609.20
2022-07-31T18:14:32.914Z,99611.88
2022-07-31T18:17:05.574Z,99617.52
2022-07-31T18:19:37.722Z,99614.83
2022-07-31T18:22:11.964Z,99620.05
2022-07-31T18:24:44.180Z,99618.11
2022-07-31T18:27:16.679Z,99620.31
2022-07-31T18:29:55.880Z,99621.85
2022-07-31T18:32:31.226Z,99623.36
2022-07-31T18:35:05.020Z,99628.02
2022-07-31T18:37:37.870Z,99633.05
2022-07-31T18:40:12.193Z,99634.32
2022-07-31T18:42:45.075Z,99639.48
2022-07-31T18:45:17.308Z,99642.52
2022-07-31T18:47:50.736Z,99640.20
2022-07-31T18:50:58.188Z,99638.92
2022-07-31T18:53:16.210Z,99638.15
2022-07-31T18:55:51.760Z,99639.13
2022-07-31T18:58:24.360Z,99641.88
2022-07-31T19:00:56.491Z,99648.25
2022-07-31T19:03:30.985Z,99652.35
2022-07-31T19:06:03.033Z,99654.92
2022-07-31T19:08:35.463Z,99657.27
2022-07-31T19:11:07.628Z,99658.77
2022-07-31T19:13:40.377Z,99658.01
2022-07-31T19:16:12.581Z,99661.23
2022-07-31T19:18:50.462Z,99664.03
2022-07-31T19:21:41.352Z,99662.85
2022-07-31T19:24:15.212Z,99664.79
2022-07-31T19:26:47.392Z,99663.63
2022-07-31T19:29:20.991Z,99662.85
2022-07-31T19:31:53.174Z,99666.98
2022-07-31T19:34:25.776Z,99668.33
2022-07-31T19:36:58.045Z,99673.98
2022-07-31T19:39:30.653Z,99678.02
2022-07-31T19:42:11.422Z,99676.91
2022-07-31T19:44:45.097Z,99677.36
2022-07-31T19:47:17.247Z,99676.52
2022-07-31T19:49:51.883Z,99674.73
2022-07-31T19:52:23.876Z,99679.77
2022-07-31T19:54:56.542Z,99681.89
2022-07-31T19:57:28.704Z,99679.98
2022-07-31T20:00:01.340Z,99677.34
2022-07-31T20:02:37.235Z,99677.61
2022-07-31T20:05:13.702Z,99674.30
2022-07-31T20:07:45.984Z,99678.28
2022-07-31T20:10:18.701Z,99676.31
2022-07-31T20:12:50.671Z,99674.02
2022-07-31T20:15:23.540Z,99672.65
2022-07-31T20:17:57.718Z,99669.92
2022-07-31T20:20:30.293Z,99666.39
2022-07-31T20:23:02.423Z,99665.53
2022-07-31T20:25:34.896Z,99665.85
2022-07-31T20:28:07.393Z,99668.29
2022-07-31T20:30:39.667Z,99672.17
2022-07-31T20:33:13.425Z,99670.90
2022-07-31T20:35:48.808Z,99669.95
2022-07-31T20:38:22.823Z,99671.30
2022-07-31T20:40:56.715Z,99671.93
2022-07-31T20:43:30.290Z,99671.36
2022-07-31T20:46:02.989Z,99673.22
2022-07-31T20:48:35.304Z,99673.48
2022-07-31T20:51:13.546Z,99671.52
2022-07-31T20:53:45.558Z,99671.89
2022-07-31T20:56:18.152Z,99672.08
2022-07-31T20:58:51.935Z,99678.04
2022-07-31T21:01:26.270Z,99674.67
2022-07-31T21:03:58.500Z,99672.70
2022-07-31T21:06:31.088Z,99673.79
2022-07-31T21:09:04.677Z,99677.23
2022-07-31T21:11:37.720Z,99681.79
2022-07-31T21:14:09.750Z,99678.77
2022-07-31T21:16:42.264Z,99681.61
2022-07-31T21:19:15.175Z,99683.79
2022-07-31T21:21:47.687Z,99687.36
2022-07-31T21:24:20.702Z,99683.20
2022-07-31T21:27:00.360Z,99684.62
2022-07-31T21:29:33.136Z,99684.42
2022-07-31T21:32:07.502Z,99677.08
2022-07-31T21:34:40.941Z,99683.23
2022-07-31T21:37:16.173Z,99679.50
2022-07-31T21:39:49.184Z,99680.18
2022-07-31T21:42:22.312Z,99683.95
2022-07-31T21:44:57.141Z,99685.34
2022-07-31T21:47:52.244Z,99684.44
2022-07-31T21:50:29.151Z,99684.59
2022-07-31T21:53:02.403Z,99685.39
2022-07-31T21:55:34.863Z,99684.45
2022-07-31T21:58:10.398Z,99685.56
2022-07-31T22:00:42.992Z,99687.30
2022-07-31T22:03:15.511Z,99690.89
2022-07-31T22:06:05.137Z,99689.89
2022-07-31T22:08:38.032Z,99687.73
2022-07-31T22:11:10.318Z,99684.73
2022-07-31T22:13:42.987Z,99682.23
2022-07-31T22:16:15.264Z,99680.58
2022-07-31T22:18:49.719Z,99682.14
2022-07-31T22:21:23.565Z,99677.52
2022-07-31T22:23:56.958Z,99676.09
2022-07-31T22:26:30.319Z,99673.64
2022-07-31T22:29:03.656Z,99679.61
2022-07-31T22:31:37.783Z,99680.44
2022-07-31T22:34:37.174Z,99681.77
2022-07-31T22:37:10.873Z,99683.42
2022-07-31T22:39:43.953Z,99682.25
2022-07-31T22:42:16.162Z,99681.36
2022-07-31T22:44:48.991Z,99681.22
2022-07-31T22:47:21.225Z,99677.67
2022-07-31T22:49:54.121Z,99675.38
2022-07-31T22:52:33.186Z,99673.44
2022-07-31T22:55:11.345Z,99672.26
2022-07-31T22:57:45.115Z,99676.80
2022-07-31T23:00:19.614Z,99675.30
2022-07-31T23:02:51.811Z,99676.99
2022-07-31T23:05:24.500Z,99676.96
2022-07-31T23:07:56.624Z,99673.75
2022-07-31T23:10:29.452Z,99672.73
2022-07-31T23:13:01.568Z,99675.98
2022-07-31T23:15:34.765Z,99677.51
2022-07-31T23:18:06.973Z,99677.41
2022-07-31T23:20:39.812Z,99677.73
2022-07-31T23:23:11.947Z,99674.79
2022-07-31T23:25:44.514Z,99678.61
2022-07-31T23:28:16.640Z,99680.98
2022-07-31T23:30:49.115Z,99680.72
2022-07-31T23:33:21.245Z,99680.14
2022-07-31T23:35:54.033Z,99679.30
2022-07-31T23:38:26.088Z,99688.29
2022-07-31T23:40:59.099Z,99684.98
2022-07-31T23:43:31.252Z,99688.80
2022-07-31T23:46:04.334Z,99696.52
2022-07-31T23:48:39.419Z,99698.07
2022-07-31T23:51:11.983Z,99697.05
2022-07-31T23:53:44.236Z,99698.74
2022-07-31T23:56:19.658Z,99701.06
2022-07-31T23:58:52.194Z,99701.60
